71FA weather

FPL Jupiter West Office Complex Heliport
Jupiter, Florida, United States

Public forecast

Using degrees Fahrenheit for public forecast. Weather courtesy of forecast.io.

METAR (pilot weather report)

Closest report is Witham Field, 17.0 nm (31.5 km) NNE. Retrieved 2019/06/16 14:47 UTC (1 hour ago):

KSUA 161447Z 10005KT 5SM RA BKN017 24/21 A3011

TAF (pilot weather forecast)

Closest forecast is Witham Field, 17.0 nm (31.5 km) NNE. Retrieved 2019/06/16 12:30 UTC (3 hours ago):

TAF KSUA 161128Z 1612/1712 12005KT P6SM VCSH SCT020 BKN050 FM161400 15007KT P6SM VCSH SCT025 BKN070 TEMPO 1615/1617 5SM SHRA BKN030 FM161700 13009KT P6SM VCTS SCT025CB BKN050 FM162000 15006KT P6SM SCT030 BKN250